createdAt,value
2018-05-07T00:00:50.589Z,64.12
2018-05-07T00:03:19.830Z,64.06
2018-05-07T00:05:49.106Z,64.09
2018-05-07T00:08:18.232Z,63.99
2018-05-07T00:10:47.454Z,64.39
2018-05-07T00:13:17.447Z,64.31
2018-05-07T00:15:46.681Z,64.57
2018-05-07T00:18:16.791Z,64.15
2018-05-07T00:20:46.039Z,64.00
2018-05-07T00:23:15.228Z,64.16
2018-05-07T00:25:44.426Z,64.39
2018-05-07T00:28:13.718Z,64.53
2018-05-07T00:30:43.670Z,64.77
2018-05-07T00:33:13.048Z,65.29
2018-05-07T00:35:42.237Z,65.69
2018-05-07T00:38:11.630Z,66.14
2018-05-07T00:40:40.831Z,67.02
2018-05-07T00:43:10.084Z,67.37
2018-05-07T00:45:39.534Z,67.37
2018-05-07T00:48:09.487Z,67.62
2018-05-07T00:50:38.673Z,67.75
2018-05-07T00:53:08.129Z,68.13
2018-05-07T00:55:38.113Z,68.65
2018-05-07T00:58:07.315Z,68.57
2018-05-07T01:00:37.301Z,68.40
2018-05-07T01:03:06.522Z,68.86
2018-05-07T01:05:35.729Z,68.69
2018-05-07T01:08:05.722Z,68.97
2018-05-07T01:10:34.918Z,68.95
2018-05-07T01:13:04.119Z,68.62
2018-05-07T01:15:33.345Z,68.44
2018-05-07T01:18:03.315Z,68.32
2018-05-07T01:20:32.536Z,68.49
2018-05-07T01:23:01.745Z,68.55
2018-05-07T01:25:32.666Z,68.44
2018-05-07T01:28:01.995Z,68.67
2018-05-07T01:30:32.033Z,69.80
2018-05-07T01:33:01.260Z,70.33
2018-05-07T01:35:30.499Z,70.29
2018-05-07T01:38:00.505Z,70.15
2018-05-07T01:40:29.993Z,70.16
2018-05-07T01:42:59.246Z,70.53
2018-05-07T01:45:29.209Z,70.30
2018-05-07T01:47:58.413Z,70.89
2018-05-07T01:50:27.729Z,71.38
2018-05-07T01:52:56.970Z,71.38
2018-05-07T01:55:26.277Z,72.26
2018-05-07T01:57:55.489Z,72.48
2018-05-07T02:00:24.713Z,72.57
2018-05-07T02:02:54.729Z,73.36
2018-05-07T02:05:24.108Z,73.33
2018-05-07T02:07:53.365Z,73.48
2018-05-07T02:10:22.568Z,73.22
2018-05-07T02:12:51.767Z,72.92
2018-05-07T02:15:21.056Z,72.65
2018-05-07T02:17:50.274Z,72.27
2018-05-07T02:20:19.567Z,71.88
2018-05-07T02:22:48.795Z,71.74
2018-05-07T02:25:18.018Z,72.35
2018-05-07T02:27:47.264Z,71.66
2018-05-07T02:30:16.468Z,71.25
2018-05-07T02:32:45.729Z,70.96
2018-05-07T02:35:15.714Z,71.23
2018-05-07T02:37:44.960Z,71.04
2018-05-07T02:40:14.380Z,71.56
2018-05-07T02:42:43.589Z,70.42
2018-05-07T02:45:12.812Z,70.32
2018-05-07T02:47:43.563Z,70.20
2018-05-07T02:50:13.553Z,70.51
2018-05-07T02:52:42.768Z,70.32
2018-05-07T02:55:12.224Z,69.98
2018-05-07T02:57:41.489Z,69.73
2018-05-07T03:00:10.721Z,69.79
2018-05-07T03:02:39.934Z,69.67
2018-05-07T03:05:09.162Z,69.51
2018-05-07T03:07:38.361Z,69.56
2018-05-07T03:10:08.393Z,69.62
2018-05-07T03:12:37.583Z,69.27
2018-05-07T03:15:07.625Z,69.27
2018-05-07T03:17:36.858Z,69.16
2018-05-07T03:20:06.813Z,69.15
2018-05-07T03:22:35.985Z,68.91
2018-05-07T03:25:05.234Z,68.96
2018-05-07T03:27:35.985Z,68.95
2018-05-07T03:30:05.226Z,68.93
2018-05-07T03:32:34.486Z,68.50
2018-05-07T03:35:03.738Z,68.30
2018-05-07T03:37:32.927Z,68.58
2018-05-07T03:40:02.937Z,68.96
2018-05-07T03:42:32.409Z,68.35
2018-05-07T03:45:01.686Z,68.23
2018-05-07T03:47:30.901Z,68.24
2018-05-07T03:50:00.126Z,68.43
2018-05-07T03:52:29.467Z,68.48
2018-05-07T03:54:58.677Z,68.48
2018-05-07T03:57:27.916Z,68.94
2018-05-07T03:59:57.263Z,68.38
2018-05-07T04:02:27.257Z,68.84
2018-05-07T04:04:56.458Z,68.83
2018-05-07T04:07:26.650Z,68.79
2018-05-07T04:09:55.673Z,68.78
2018-05-07T04:12:25.679Z,69.27
2018-05-07T04:14:54.881Z,69.31
2018-05-07T04:17:42.790Z,69.55
2018-05-07T04:20:29.766Z,69.90
2018-05-07T04:23:17.743Z,70.17
2018-05-07T04:25:46.955Z,70.58
2018-05-07T04:28:16.169Z,70.91
2018-05-07T04:30:46.151Z,70.97
2018-05-07T04:33:16.234Z,71.50
2018-05-07T04:35:45.470Z,71.78
2018-05-07T04:38:14.709Z,72.04
2018-05-07T04:40:44.782Z,72.29
2018-05-07T04:43:14.186Z,72.30
2018-05-07T04:45:43.313Z,72.01
2018-05-07T04:48:13.362Z,71.56
2018-05-07T04:50:42.666Z,71.55
2018-05-07T04:53:11.872Z,71.98
2018-05-07T04:55:41.096Z,72.05
2018-05-07T04:58:10.444Z,72.22
2018-05-07T05:00:39.768Z,72.29
2018-05-07T05:03:09.003Z,72.08
2018-05-07T05:05:38.225Z,71.95
2018-05-07T05:08:08.233Z,71.46
2018-05-07T05:10:37.458Z,71.32
2018-05-07T05:13:06.665Z,70.48
2018-05-07T05:15:35.886Z,69.69
2018-05-07T05:18:05.112Z,69.33
2018-05-07T05:20:35.811Z,69.76
2018-05-07T05:23:05.044Z,69.09
2018-05-07T05:25:34.307Z,68.98
2018-05-07T05:28:03.557Z,68.62
2018-05-07T05:30:32.769Z,68.92
2018-05-07T05:33:02.799Z,68.69
2018-05-07T05:35:32.757Z,68.57
2018-05-07T05:38:02.792Z,68.48
2018-05-07T05:40:32.042Z,67.49
2018-05-07T05:43:01.333Z,67.67
2018-05-07T05:45:30.550Z,67.67
2018-05-07T05:47:59.784Z,67.77
2018-05-07T05:50:28.995Z,66.07
2018-05-07T05:52:58.230Z,65.76
2018-05-07T05:55:27.509Z,65.27
2018-05-07T05:57:56.755Z,64.82
2018-05-07T06:00:25.995Z,64.51
2018-05-07T06:02:56.032Z,64.46
2018-05-07T06:05:26.103Z,63.98
2018-05-07T06:07:55.705Z,63.60
2018-05-07T06:10:24.939Z,63.50
2018-05-07T06:12:54.198Z,63.76
2018-05-07T06:15:23.435Z,64.31
2018-05-07T06:17:52.654Z,64.59
2018-05-07T06:20:21.904Z,64.05
2018-05-07T06:22:51.107Z,63.98
2018-05-07T06:25:20.319Z,64.73
2018-05-07T06:27:50.313Z,64.00
2018-05-07T06:30:19.562Z,63.52
2018-05-07T06:32:48.776Z,63.59
2018-05-07T06:35:18.030Z,63.29
2018-05-07T06:37:48.019Z,62.94
2018-05-07T06:40:17.301Z,62.66
2018-05-07T06:42:47.238Z,63.07
2018-05-07T06:45:17.989Z,61.83
2018-05-07T06:47:47.992Z,61.85
2018-05-07T06:50:17.251Z,61.92
2018-05-07T06:52:46.486Z,61.58
2018-05-07T06:55:15.741Z,61.59
2018-05-07T06:57:44.976Z,59.98
2018-05-07T07:00:14.196Z,59.20
2018-05-07T07:02:44.295Z,58.32
2018-05-07T07:05:13.453Z,58.78
2018-05-07T07:07:42.717Z,58.09
2018-05-07T07:10:12.683Z,57.89
2018-05-07T07:12:41.945Z,57.82
2018-05-07T07:15:11.191Z,57.18
2018-05-07T07:17:40.432Z,57.68
2018-05-07T07:20:09.861Z,57.35
2018-05-07T07:22:39.080Z,56.88
2018-05-07T07:25:08.322Z,56.26
2018-05-07T07:27:38.313Z,57.42
2018-05-07T07:30:07.537Z,56.84
2018-05-07T07:32:36.801Z,56.23
2018-05-07T07:35:06.025Z,55.23
2018-05-07T07:37:36.032Z,55.47
2018-05-07T07:40:05.236Z,55.12
2018-05-07T07:42:34.471Z,55.17
2018-05-07T07:45:03.737Z,55.01
2018-05-07T07:47:33.525Z,54.20
2018-05-07T07:50:02.749Z,54.35
2018-05-07T07:52:32.791Z,54.59
2018-05-07T07:55:03.493Z,54.98
2018-05-07T07:57:33.487Z,54.60
2018-05-07T08:00:02.821Z,54.87
2018-05-07T08:02:32.058Z,54.50
2018-05-07T08:05:01.277Z,54.01
2018-05-07T08:07:30.555Z,54.30
2018-05-07T08:09:59.857Z,53.47
2018-05-07T08:12:29.062Z,53.87
2018-05-07T08:14:58.333Z,53.48
2018-05-07T08:17:27.692Z,53.70
2018-05-07T08:19:56.929Z,54.06
2018-05-07T08:22:26.159Z,53.49
2018-05-07T08:24:55.385Z,53.85
2018-05-07T08:27:24.608Z,54.00
2018-05-07T08:29:54.585Z,53.26
2018-05-07T08:32:23.838Z,53.15
2018-05-07T08:34:53.042Z,53.31
2018-05-07T08:37:22.270Z,53.47
2018-05-07T08:39:51.475Z,53.21
2018-05-07T08:42:20.722Z,53.51
2018-05-07T08:44:49.958Z,53.05
2018-05-07T08:47:19.185Z,52.47
2018-05-07T08:49:48.394Z,52.88
2018-05-07T08:52:18.423Z,52.75
2018-05-07T08:54:48.565Z,53.06
2018-05-07T08:57:17.814Z,52.91
2018-05-07T08:59:48.554Z,52.82
2018-05-07T09:02:18.620Z,51.99
2018-05-07T09:04:48.802Z,51.69
2018-05-07T09:07:18.801Z,52.04
2018-05-07T09:09:48.797Z,51.51
2018-05-07T09:12:18.081Z,50.84
2018-05-07T09:14:47.397Z,49.27
2018-05-07T09:17:16.597Z,49.04
2018-05-07T09:19:47.569Z,48.52
2018-05-07T09:22:17.588Z,48.32
2018-05-07T09:24:47.017Z,48.53
2018-05-07T09:27:16.304Z,49.31
2018-05-07T09:29:45.626Z,49.02
2018-05-07T09:32:14.852Z,48.00
2018-05-07T09:34:44.096Z,47.62
2018-05-07T09:37:13.297Z,46.27
2018-05-07T09:39:42.521Z,45.46
2018-05-07T09:42:11.777Z,45.48
2018-05-07T09:44:41.764Z,45.69
2018-05-07T09:47:10.962Z,43.75
2018-05-07T09:49:40.650Z,43.91
2018-05-07T09:52:09.889Z,44.62
2018-05-07T09:54:39.869Z,45.16
2018-05-07T09:57:09.076Z,43.05
2018-05-07T09:59:38.298Z,41.30
2018-05-07T10:02:08.296Z,40.13
2018-05-07T10:04:37.513Z,41.14
2018-05-07T10:07:07.497Z,41.57
2018-05-07T10:09:36.913Z,40.01
2018-05-07T10:12:06.112Z,41.48
2018-05-07T10:14:35.330Z,41.15
2018-05-07T10:17:05.352Z,41.36
2018-05-07T10:19:34.959Z,40.88
2018-05-07T10:22:04.928Z,41.45
2018-05-07T10:24:34.152Z,41.04
2018-05-07T10:27:03.405Z,40.58
2018-05-07T10:29:32.765Z,42.26
2018-05-07T10:32:02.051Z,41.14
2018-05-07T10:34:31.256Z,40.85
2018-05-07T10:37:00.475Z,41.17
2018-05-07T10:39:30.576Z,40.94
2018-05-07T10:42:00.605Z,39.95
2018-05-07T10:44:30.600Z,40.65
2018-05-07T10:46:59.969Z,41.97
2018-05-07T10:49:29.181Z,39.39
2018-05-07T10:51:59.970Z,40.25
2018-05-07T10:54:29.177Z,40.65
2018-05-07T10:56:58.420Z,41.36
2018-05-07T10:59:27.628Z,40.30
2018-05-07T11:01:56.838Z,41.49
2018-05-07T11:04:26.816Z,40.04
2018-05-07T11:06:56.088Z,41.33
2018-05-07T11:09:25.392Z,41.05
2018-05-07T11:11:55.343Z,40.94
2018-05-07T11:14:24.553Z,41.70
2018-05-07T11:16:54.613Z,40.72
2018-05-07T11:19:23.973Z,39.11
2018-05-07T11:21:54.052Z,40.52
2018-05-07T11:24:23.237Z,39.53
2018-05-07T11:26:52.530Z,39.20
2018-05-07T11:29:21.770Z,38.93
2018-05-07T11:31:51.009Z,40.44
2018-05-07T11:34:20.236Z,39.53
2018-05-07T11:36:49.509Z,39.32
2018-05-07T11:39:18.753Z,39.62
2018-05-07T11:41:48.718Z,39.75
2018-05-07T11:44:17.976Z,37.86
2018-05-07T11:46:47.164Z,38.24
2018-05-07T11:49:16.375Z,38.31
2018-05-07T11:51:45.577Z,38.95
2018-05-07T11:54:14.865Z,37.83
2018-05-07T11:56:44.070Z,39.04
2018-05-07T11:59:13.277Z,38.15
2018-05-07T12:01:43.233Z,38.04
2018-05-07T12:04:12.513Z,37.96
2018-05-07T12:06:42.082Z,39.02
2018-05-07T12:09:11.300Z,38.59
2018-05-07T12:11:40.522Z,38.12
2018-05-07T12:14:10.674Z,38.08
2018-05-07T12:16:40.028Z,37.90
2018-05-07T12:19:10.059Z,37.39
2018-05-07T12:21:39.294Z,37.21
2018-05-07T12:24:08.506Z,37.05
2018-05-07T12:26:37.762Z,36.95
2018-05-07T12:29:06.970Z,37.10
2018-05-07T12:31:36.386Z,37.82
2018-05-07T12:34:05.492Z,38.37
2018-05-07T12:36:35.544Z,37.12
2018-05-07T12:39:05.589Z,37.29
2018-05-07T12:41:34.873Z,37.30
2018-05-07T12:44:04.091Z,37.65
2018-05-07T12:46:34.065Z,37.34
2018-05-07T12:49:03.261Z,37.81
2018-05-07T12:51:33.350Z,36.80
2018-05-07T12:54:02.570Z,37.86
2018-05-07T12:56:31.804Z,37.39
2018-05-07T12:59:01.142Z,36.88
2018-05-07T13:01:30.291Z,35.58
2018-05-07T13:03:59.526Z,37.00
2018-05-07T13:06:29.568Z,35.51
2018-05-07T13:08:58.773Z,35.37
2018-05-07T13:11:28.083Z,35.67
2018-05-07T13:13:57.497Z,37.04
2018-05-07T13:16:27.508Z,36.31
2018-05-07T13:18:57.889Z,36.41
2018-05-07T13:21:27.186Z,35.14
2018-05-07T13:23:56.434Z,35.69
2018-05-07T13:26:26.434Z,35.82
2018-05-07T13:28:56.434Z,36.07
2018-05-07T13:31:25.663Z,35.71
2018-05-07T13:33:55.675Z,35.31
2018-05-07T13:36:24.864Z,34.52
2018-05-07T13:38:54.877Z,33.59
2018-05-07T13:41:24.860Z,34.44
2018-05-07T13:43:54.093Z,33.89
2018-05-07T13:46:24.814Z,34.67
2018-05-07T13:48:54.045Z,34.57
2018-05-07T13:51:23.261Z,34.28
2018-05-07T13:53:52.681Z,34.80
2018-05-07T13:56:21.934Z,34.03
2018-05-07T13:58:51.918Z,33.97
2018-05-07T14:01:21.154Z,34.35
2018-05-07T14:03:51.146Z,33.74
2018-05-07T14:06:20.473Z,34.21
2018-05-07T14:08:50.561Z,35.23
2018-05-07T14:11:21.356Z,34.63
2018-05-07T14:13:50.546Z,34.91
2018-05-07T14:16:19.765Z,33.95
2018-05-07T14:18:49.050Z,34.22
2018-05-07T14:21:18.295Z,35.29
2018-05-07T14:23:47.817Z,34.65
2018-05-07T14:26:17.898Z,35.40
2018-05-07T14:28:47.067Z,34.87
2018-05-07T14:31:16.289Z,35.11
2018-05-07T14:33:45.512Z,35.44
2018-05-07T14:36:14.734Z,36.07
2018-05-07T14:38:44.007Z,35.82
2018-05-07T14:41:13.242Z,34.41
2018-05-07T14:43:42.655Z,34.65
2018-05-07T14:46:11.883Z,35.37
2018-05-07T14:48:41.098Z,35.66
2018-05-07T14:51:10.306Z,35.47
2018-05-07T14:53:39.554Z,35.09
2018-05-07T14:56:08.817Z,34.41
2018-05-07T14:58:38.874Z,33.87
2018-05-07T15:01:08.059Z,33.53
2018-05-07T15:03:37.265Z,34.47
2018-05-07T15:06:06.465Z,34.24
2018-05-07T15:08:35.739Z,34.34
2018-05-07T15:11:04.967Z,34.62
2018-05-07T15:13:34.273Z,33.65
2018-05-07T15:16:03.453Z,33.50
2018-05-07T15:18:32.688Z,33.91
2018-05-07T15:21:01.905Z,33.67
2018-05-07T15:23:31.927Z,33.60
2018-05-07T15:26:01.170Z,33.96
2018-05-07T15:28:30.389Z,34.15
2018-05-07T15:30:59.669Z,34.08
2018-05-07T15:33:28.901Z,32.71
2018-05-07T15:35:58.196Z,33.17
2018-05-07T15:38:27.433Z,33.51
2018-05-07T15:40:56.729Z,34.06
2018-05-07T15:43:25.965Z,33.46
2018-05-07T15:45:55.271Z,34.22
2018-05-07T15:48:24.553Z,35.09
2018-05-07T15:50:53.800Z,32.91
2018-05-07T15:53:23.070Z,33.14
2018-05-07T15:55:52.307Z,32.95
2018-05-07T15:58:21.603Z,32.94
2018-05-07T16:00:51.626Z,32.87
2018-05-07T16:03:21.054Z,33.24
2018-05-07T16:05:51.002Z,32.76
2018-05-07T16:08:20.241Z,32.98
2018-05-07T16:10:50.223Z,32.70
2018-05-07T16:13:19.461Z,32.67
2018-05-07T16:15:49.478Z,33.33
2018-05-07T16:18:18.709Z,33.37
2018-05-07T16:20:47.929Z,33.13
2018-05-07T16:23:17.311Z,33.48
2018-05-07T16:25:46.385Z,33.04
2018-05-07T16:28:15.646Z,33.12
2018-05-07T16:30:44.819Z,33.51
2018-05-07T16:33:14.061Z,34.01
2018-05-07T16:35:44.128Z,33.51
2018-05-07T16:38:13.285Z,33.22
2018-05-07T16:40:42.545Z,33.44
2018-05-07T16:43:11.766Z,33.88
2018-05-07T16:45:41.778Z,34.23
2018-05-07T16:48:11.742Z,34.39
2018-05-07T16:50:41.273Z,34.81
2018-05-07T16:53:10.559Z,33.89
2018-05-07T16:55:39.790Z,33.83
2018-05-07T16:58:09.024Z,33.63
2018-05-07T17:00:38.221Z,33.40
2018-05-07T17:03:07.493Z,33.41
2018-05-07T17:05:37.500Z,33.19
2018-05-07T17:08:06.729Z,32.84
2018-05-07T17:10:35.954Z,33.14
2018-05-07T17:13:05.231Z,33.13
2018-05-07T17:15:35.171Z,34.19
2018-05-07T17:18:04.410Z,34.83
2018-05-07T17:20:34.393Z,35.61
2018-05-07T17:23:03.642Z,36.16
2018-05-07T17:25:33.214Z,36.44
2018-05-07T17:28:02.461Z,36.92
2018-05-07T17:30:31.653Z,37.27
2018-05-07T17:33:00.893Z,37.10
2018-05-07T17:35:30.112Z,37.40
2018-05-07T17:37:59.361Z,37.60
2018-05-07T17:40:28.611Z,37.89
2018-05-07T17:42:57.813Z,37.98
2018-05-07T17:45:45.250Z,38.09
2018-05-07T18:01:51.512Z,38.76
2018-05-07T18:04:21.483Z,39.02
2018-05-07T18:06:50.679Z,38.68
2018-05-07T18:09:21.529Z,39.17
2018-05-07T18:11:51.521Z,39.67
2018-05-07T18:14:21.381Z,39.58
2018-05-07T18:16:50.686Z,39.14
2018-05-07T18:19:20.763Z,38.84
2018-05-07T18:21:50.002Z,39.16
2018-05-07T18:24:19.990Z,39.40
2018-05-07T18:26:49.324Z,39.74
2018-05-07T18:29:19.327Z,39.28
2018-05-07T18:31:49.410Z,39.62
2018-05-07T18:34:18.633Z,39.44
2018-05-07T18:36:48.727Z,39.92
2018-05-07T18:39:17.983Z,39.85
2018-05-07T18:41:47.262Z,39.98
2018-05-07T18:44:17.304Z,40.34
2018-05-07T18:46:46.573Z,40.28
2018-05-07T18:49:15.806Z,40.60
2018-05-07T18:51:45.029Z,40.68
2018-05-07T18:54:14.269Z,41.06
2018-05-07T18:56:44.238Z,41.16
2018-05-07T18:59:13.489Z,41.26
2018-05-07T19:01:42.716Z,41.49
2018-05-07T19:04:12.169Z,41.57
2018-05-07T19:06:41.427Z,41.77
2018-05-07T19:09:10.706Z,42.05
2018-05-07T19:11:39.952Z,42.03
2018-05-07T19:14:09.971Z,42.17
2018-05-07T19:16:39.202Z,42.35
2018-05-07T19:19:08.493Z,42.25
2018-05-07T19:21:37.759Z,42.77
2018-05-07T19:24:06.996Z,42.81
2018-05-07T19:26:36.199Z,42.60
2018-05-07T19:29:05.452Z,42.42
2018-05-07T19:31:34.780Z,42.79
2018-05-07T19:34:04.788Z,42.78
2018-05-07T19:36:34.797Z,42.34
2018-05-07T19:39:04.054Z,42.54
2018-05-07T19:41:33.417Z,42.40
2018-05-07T19:44:02.641Z,42.61
2018-05-07T19:46:31.885Z,42.28
2018-05-07T19:49:01.144Z,41.96
2018-05-07T19:51:30.389Z,42.24
2018-05-07T19:54:00.383Z,42.22
2018-05-07T19:56:29.649Z,42.03
2018-05-07T19:58:58.865Z,41.99
2018-05-07T20:01:28.250Z,42.21
2018-05-07T20:03:57.697Z,42.30
2018-05-07T20:06:28.434Z,41.96
2018-05-07T20:08:58.492Z,42.18
2018-05-07T20:11:29.405Z,42.32
2018-05-07T20:26:58.799Z,44.01
2018-05-07T20:29:28.082Z,43.80
2018-05-07T20:31:57.321Z,44.08
2018-05-07T20:34:26.570Z,43.74
2018-05-07T20:36:56.600Z,43.80
2018-05-07T20:39:28.006Z,43.78
2018-05-07T20:41:58.091Z,43.51
2018-05-07T20:44:27.780Z,43.64
2018-05-07T20:46:57.043Z,43.46
2018-05-07T20:49:26.300Z,43.75
2018-05-07T20:51:55.631Z,43.83
2018-05-07T20:54:24.873Z,44.03
2018-05-07T20:56:54.977Z,44.20
2018-05-07T20:59:24.208Z,44.02
2018-05-07T21:01:54.910Z,44.20
2018-05-07T21:04:24.206Z,44.12
2018-05-07T21:06:53.670Z,44.42
2018-05-07T21:09:22.895Z,45.12
2018-05-07T21:11:52.124Z,45.41
2018-05-07T21:14:22.143Z,45.43
2018-05-07T21:16:52.204Z,45.77
2018-05-07T21:19:22.879Z,46.28
2018-05-07T21:21:52.149Z,46.50
2018-05-07T21:24:21.499Z,47.04
2018-05-07T21:26:50.733Z,47.20
2018-05-07T21:29:20.283Z,47.57
2018-05-07T21:31:49.695Z,47.33
2018-05-07T21:34:19.698Z,47.49
2018-05-07T21:36:49.761Z,48.07
2018-05-07T21:39:19.913Z,48.33
2018-05-07T21:41:49.154Z,48.86
2018-05-07T21:44:18.405Z,49.02
2018-05-07T21:46:47.628Z,49.30
2018-05-07T21:49:16.871Z,49.37
2018-05-07T21:51:46.178Z,49.64
2018-05-07T21:54:15.421Z,50.09
2018-05-07T21:56:45.500Z,50.02
2018-05-07T21:59:14.742Z,50.45
2018-05-07T22:01:44.744Z,50.07
2018-05-07T22:04:13.995Z,50.30
2018-05-07T22:06:43.209Z,50.80
2018-05-07T22:09:12.414Z,51.33
2018-05-07T22:11:41.680Z,52.04
2018-05-07T22:14:11.620Z,52.56
2018-05-07T22:16:40.995Z,53.15
2018-05-07T22:19:10.134Z,53.08
2018-05-07T22:21:39.377Z,52.68
2018-05-07T22:24:08.595Z,52.47
2018-05-07T22:26:37.849Z,52.94
2018-05-07T22:29:07.053Z,52.38
2018-05-07T22:31:36.273Z,52.59
2018-05-07T22:34:05.506Z,53.44
2018-05-07T22:36:34.754Z,54.25
2018-05-07T22:39:28.025Z,54.55
2018-05-07T22:41:57.251Z,54.66
2018-05-07T22:44:26.448Z,53.87
2018-05-07T22:46:55.694Z,54.12
2018-05-07T22:49:25.123Z,54.12
2018-05-07T22:51:54.366Z,54.71
2018-05-07T22:54:23.710Z,55.11
2018-05-07T22:56:53.674Z,56.42
2018-05-07T22:59:23.004Z,57.17
2018-05-07T23:01:52.247Z,57.31
2018-05-07T23:04:21.464Z,57.78
2018-05-07T23:06:50.677Z,57.19
2018-05-07T23:09:19.886Z,57.67
2018-05-07T23:11:49.113Z,58.60
2018-05-07T23:14:19.121Z,58.74
2018-05-07T23:16:48.367Z,59.40
2018-05-07T23:19:17.587Z,59.46
2018-05-07T23:21:46.814Z,59.34
2018-05-07T23:24:16.037Z,59.42
2018-05-07T23:26:45.233Z,59.25
2018-05-07T23:29:14.464Z,59.64
2018-05-07T23:31:43.704Z,59.50
2018-05-07T23:34:13.706Z,60.08
2018-05-07T23:36:42.956Z,60.21
2018-05-07T23:39:12.160Z,60.04
2018-05-07T23:41:41.378Z,60.05
2018-05-07T23:44:10.611Z,59.64
2018-05-07T23:46:40.665Z,60.30
2018-05-07T23:49:10.023Z,60.99
2018-05-07T23:51:40.090Z,60.86
2018-05-07T23:54:09.321Z,60.91
2018-05-07T23:56:38.518Z,61.25
2018-05-07T23:59:07.784Z,61.48
